Time;durP1;ratioP1;P1;durP2;ratioP2;P2;SDS_P1;SDS_P2;PMS_P1;PMS_P2;Temp;Humidity;BMP_temperature;BMP_pressure;BME280_temperature;BME280_humidity;BME280_pressure;Samples;Min_cycle;Max_cycle;Signal;HPM_P1;HPM_P2
2022/01/17 00:01:43;;;;;;;43.42;18.08;;;;;;;3.99;69.82;98674.00;6001536;23;20267;-87
2022/01/17 00:04:10;;;;;;;60.67;19.02;;;;;;;3.91;70.40;98677.41;6002850;23;20234;-89
2022/01/17 00:06:36;;;;;;;47.97;16.05;;;;;;;3.92;70.54;98678.19;5999729;23;20178;-89
2022/01/17 00:09:02;;;;;;;58.67;17.70;;;;;;;3.93;70.12;98672.09;6024602;23;20257;-88
2022/01/17 00:11:27;;;;;;;45.85;17.00;;;;;;;4.04;70.07;98674.31;5999757;23;20238;-87
2022/01/17 00:13:53;;;;;;;51.60;17.55;;;;;;;3.99;70.13;98668.03;5999497;23;20304;-88
2022/01/17 00:16:32;;;;;;;59.03;18.42;;;;;;;4.11;70.05;98685.59;6001336;23;20238;-88
2022/01/17 00:21:41;;;;;;;44.25;16.48;;;;;;;4.15;69.46;98655.13;6024222;23;20328;-88
2022/01/17 00:24:08;;;;;;;39.38;17.85;;;;;;;4.13;69.79;98665.59;5998077;23;20690;-87
2022/01/17 00:26:34;;;;;;;42.65;17.10;;;;;;;4.08;69.79;98657.56;6003048;23;20197;-87
2022/01/17 00:28:59;;;;;;;41.70;18.50;;;;;;;3.95;70.13;98652.09;6060760;23;20144;-89
2022/01/17 00:31:25;;;;;;;47.50;17.45;;;;;;;4.10;69.68;98665.13;5998535;23;20232;-88
2022/01/17 00:33:50;;;;;;;43.08;17.95;;;;;;;4.10;69.49;98665.13;6000189;23;20149;-88
2022/01/17 00:36:15;;;;;;;39.40;15.13;;;;;;;3.92;69.58;98668.72;5995674;23;20186;-87
2022/01/17 00:38:41;;;;;;;46.60;17.15;;;;;;;3.96;69.66;98674.34;6002905;23;20325;-87
2022/01/17 00:41:06;;;;;;;44.50;15.50;;;;;;;4.07;70.35;98683.50;6019591;23;20700;-87
2022/01/17 00:43:31;;;;;;;41.38;16.63;;;;;;;4.10;70.07;98688.31;6060885;23;20009;-88
2022/01/17 00:45:57;;;;;;;45.63;16.13;;;;;;;4.05;69.57;98680.28;6020887;23;20068;-87
2022/01/17 00:48:22;;;;;;;38.97;15.43;;;;;;;4.05;69.17;98686.22;6025752;23;20746;-88
2022/01/17 00:50:48;;;;;;;43.03;17.15;;;;;;;3.96;69.94;98676.09;6024361;23;20653;-88
2022/01/17 00:53:13;;;;;;;40.90;17.00;;;;;;;4.00;69.53;98678.19;6052020;23;20008;-88
2022/01/17 00:55:39;;;;;;;32.92;14.32;;;;;;;3.86;70.27;98663.41;6024325;23;19998;-89
2022/01/17 00:58:05;;;;;;;38.60;15.05;;;;;;;3.86;70.42;98653.09;6025343;23;20041;-89
2022/01/17 01:00:30;;;;;;;37.47;16.15;;;;;;;3.99;70.22;98663.69;6028879;23;20006;-88
2022/01/17 01:02:56;;;;;;;38.10;15.40;;;;;;;3.92;68.95;98648.09;6027376;23;20707;-88
2022/01/17 01:05:21;;;;;;;34.38;14.80;;;;;;;3.95;70.67;98659.84;6054245;23;20002;-90
2022/01/17 01:07:47;;;;;;;33.53;14.02;;;;;;;4.01;70.08;98642.91;6021509;23;20013;-88
2022/01/17 01:10:12;;;;;;;38.85;15.50;;;;;;;3.86;70.09;98651.31;6023263;23;20006;-89
2022/01/17 01:12:43;;;;;;;38.05;14.93;;;;;;;3.91;69.81;98641.34;6016726;23;20898;-88
2022/01/17 01:15:14;;;;;;;33.97;16.10;;;;;;;3.73;69.99;98651.03;6054234;23;20025;-89
2022/01/17 01:17:54;;;;;;;32.65;13.88;;;;;;;3.81;70.67;98668.25;6055969;23;20016;-88
2022/01/17 01:21:02;;;;;;;;;;;;;;;;;;;;;
2022/01/17 01:28:29;;;;;;;35.80;13.63;;;;;;;3.87;69.72;98676.13;6070206;23;20301;-87
2022/01/17 01:30:56;;;;;;;32.83;13.35;;;;;;;3.93;69.45;98683.19;6044938;23;20009;-87
2022/01/17 01:33:29;;;;;;;36.72;13.50;;;;;;;3.93;70.27;98688.34;6056857;23;20244;-86
2022/01/17 01:36:03;;;;;;;33.92;14.15;;;;;;;4.01;69.98;98691.88;6022036;23;19994;-88
2022/01/17 01:38:29;;;;;;;33.38;14.52;;;;;;;4.05;69.42;98685.44;6021050;23;20061;-88
2022/01/17 01:40:54;;;;;;;38.03;13.95;;;;;;;3.87;69.94;98681.28;6043801;23;20092;-88
2022/01/17 01:43:20;;;;;;;37.58;14.25;;;;;;;3.94;70.42;98687.38;6021480;23;20031;-89
2022/01/17 01:45:49;;;;;;;40.55;12.75;;;;;;;3.81;70.09;98669.03;6003531;23;20010;-91
2022/01/17 01:48:19;;;;;;;37.90;14.68;;;;;;;3.81;70.40;98661.31;6025300;23;20009;-88
2022/01/17 01:50:44;;;;;;;33.58;13.30;;;;;;;3.89;69.74;98670.78;6056630;23;20596;-88
2022/01/17 01:53:10;;;;;;;41.30;13.32;;;;;;;3.72;70.40;98664.88;6023644;23;20041;-88
2022/01/17 01:55:35;;;;;;;33.85;13.27;;;;;;;3.88;70.41;98685.47;6059641;23;20028;-88
2022/01/17 01:58:01;;;;;;;35.80;14.55;;;;;;;3.88;70.01;98680.31;6023699;23;20012;-89
2022/01/17 02:00:26;;;;;;;37.88;13.35;;;;;;;3.78;70.43;98682.25;6072011;23;20017;-87
2022/01/17 02:02:51;;;;;;;33.05;12.35;;;;;;;3.59;70.58;98669.72;6033475;23;20009;-87
2022/01/17 02:05:17;;;;;;;32.47;13.48;;;;;;;3.72;70.54;98685.50;6024192;23;20037;-86
2022/01/17 02:07:44;;;;;;;31.38;12.23;;;;;;;3.66;70.68;98691.28;6000438;23;20076;-89
2022/01/17 02:10:10;;;;;;;30.08;11.70;;;;;;;3.73;70.09;98687.88;5999718;23;20009;-86
2022/01/17 02:12:35;;;;;;;35.28;14.30;;;;;;;3.86;70.60;98691.75;6033318;23;20005;-86
2022/01/17 02:15:01;;;;;;;34.47;13.32;;;;;;;3.89;70.35;98694.81;6000908;23;20085;-89
2022/01/17 02:17:27;;;;;;;34.90;12.23;;;;;;;3.74;70.40;98701.59;6030869;23;20028;-87
2022/01/17 02:20:05;;;;;;;33.90;13.25;;;;;;;3.82;70.57;98711.88;6056197;23;20206;-86
2022/01/17 02:22:30;;;;;;;30.98;13.10;;;;;;;3.79;70.19;98694.19;6002805;23;20077;-89
2022/01/17 02:24:56;;;;;;;28.92;11.85;;;;;;;3.83;70.50;98703.19;6001305;23;20580;-87
2022/01/17 02:27:21;;;;;;;35.20;13.50;;;;;;;3.90;70.13;98680.94;6001810;23;20273;-86
2022/01/17 02:29:47;;;;;;;31.35;13.43;;;;;;;3.93;69.87;98687.56;6001173;23;20277;-86
2022/01/17 02:32:12;;;;;;;30.75;11.52;;;;;;;3.74;70.22;98701.59;6001503;23;20727;-86
2022/01/17 02:34:42;;;;;;;32.70;11.93;;;;;;;3.76;70.05;98671.31;6033228;23;20092;-86
2022/01/17 02:37:08;;;;;;;45.42;13.57;;;;;;;3.80;70.27;98693.19;6001429;23;20659;-87
2022/01/17 02:39:34;;;;;;;32.22;11.52;;;;;;;3.78;70.21;98695.13;6000792;23;20006;-86
2022/01/17 02:42:04;;;;;;;37.70;13.15;;;;;;;3.74;70.31;98694.66;6000819;23;20037;-86
2022/01/17 02:44:29;;;;;;;36.30;13.05;;;;;;;3.81;70.21;98694.81;6032895;23;20002;-87
2022/01/17 02:46:55;;;;;;;28.27;12.07;;;;;;;3.92;69.49;98701.38;6001697;23;20005;-87
2022/01/17 02:49:20;;;;;;;34.45;12.90;;;;;;;3.94;70.19;98700.28;6001977;23;20091;-87
2022/01/17 02:51:48;;;;;;;31.25;10.85;;;;;;;3.86;70.20;98695.13;5999766;23;20092;-89
2022/01/17 02:54:14;;;;;;;26.55;10.95;;;;;;;3.95;70.57;98693.34;6001125;23;20017;-86
2022/01/17 02:56:40;;;;;;;31.00;12.55;;;;;;;3.99;70.17;98686.09;6001445;23;20009;-86
2022/01/17 02:59:06;;;;;;;28.00;11.63;;;;;;;3.83;69.89;98687.72;6002331;23;20005;-87
2022/01/17 03:01:31;;;;;;;29.58;12.27;;;;;;;3.77;71.00;98693.53;6003108;23;20667;-88
2022/01/17 03:03:57;;;;;;;32.38;11.80;;;;;;;3.66;70.38;98681.78;6002765;23;20691;-87
2022/01/17 03:06:24;;;;;;;29.23;11.10;;;;;;;3.78;70.14;98679.69;6036139;23;20006;-86
2022/01/17 03:08:50;;;;;;;33.42;11.20;;;;;;;3.81;70.02;98663.91;6004138;23;20732;-86
2022/01/17 03:11:19;;;;;;;44.15;11.30;;;;;;;3.79;70.79;98676.16;6026986;23;20002;-86
2022/01/17 03:13:47;;;;;;;53.03;14.88;;;;;;;3.78;70.11;98674.53;6003291;23;20001;-88
2022/01/17 03:16:15;;;;;;;42.17;12.27;;;;;;;3.60;71.04;98669.56;6003185;23;20009;-87
2022/01/17 03:18:44;;;;;;;27.15;11.48;;;;;;;3.79;69.22;98659.84;6002729;23;20017;-86
2022/01/17 03:21:11;;;;;;;34.47;10.90;;;;;;;3.73;70.21;98656.97;6003227;23;20680;-88
2022/01/17 03:23:38;;;;;;;49.65;12.30;;;;;;;3.86;70.62;98671.94;6002484;23;20001;-87
2022/01/17 03:26:05;;;;;;;32.47;10.73;;;;;;;3.82;70.22;98675.81;6001636;23;20716;-87
2022/01/17 03:28:30;;;;;;;46.03;12.25;;;;;;;3.91;69.75;98672.25;6003326;23;20806;-88
2022/01/17 03:30:56;;;;;;;29.33;10.73;;;;;;;3.94;69.63;98689.97;6002393;23;20096;-86
2022/01/17 03:33:22;;;;;;;31.80;10.95;;;;;;;3.79;70.19;98678.72;6002218;23;20030;-87
2022/01/17 03:35:48;;;;;;;45.15;12.60;;;;;;;3.77;70.56;98683.22;6002852;23;20081;-86
2022/01/17 03:38:16;;;;;;;41.65;13.10;;;;;;;3.74;70.26;98693.84;6034669;23;20073;-87
2022/01/17 03:40:42;;;;;;;34.50;13.38;;;;;;;3.70;70.77;98677.09;6001826;23;20744;-86
2022/01/17 03:43:08;;;;;;;28.38;12.02;;;;;;;3.77;70.40;98687.56;6026224;23;19998;-87
2022/01/17 03:45:33;;;;;;;50.28;13.02;;;;;;;3.71;70.53;98704.47;6002663;23;20642;-87
2022/01/17 03:47:59;;;;;;;38.78;12.45;;;;;;;3.72;70.47;98700.94;6003504;23;20013;-86
2022/01/17 03:50:26;;;;;;;51.80;14.20;;;;;;;3.74;70.70;98704.16;6002130;23;20081;-86
2022/01/17 03:52:51;;;;;;;40.63;12.73;;;;;;;3.68;70.65;98690.13;6034085;23;20822;-88
2022/01/17 03:55:20;;;;;;;35.45;13.85;;;;;;;3.62;70.88;98688.22;6002599;23;20100;-87
2022/01/17 03:57:45;;;;;;;33.33;12.75;;;;;;;3.71;70.46;98691.59;6026967;23;20005;-87
2022/01/17 04:00:17;;;;;;;42.55;13.65;;;;;;;3.76;70.56;98689.34;6034257;23;20009;-89
2022/01/17 04:02:42;;;;;;;47.63;15.40;;;;;;;3.64;71.04;98695.78;6002552;23;20017;-87
2022/01/17 04:05:09;;;;;;;31.02;12.55;;;;;;;3.72;70.89;98690.66;6050358;23;20018;-86
2022/01/17 04:07:34;;;;;;;36.83;14.70;;;;;;;3.85;70.14;98696.09;6002607;23;20009;-86
2022/01/17 04:10:03;;;;;;;43.33;14.82;;;;;;;3.79;70.42;98693.34;6003881;23;20056;-88
2022/01/17 04:12:28;;;;;;;37.60;14.23;;;;;;;3.66;71.00;98692.09;5979587;23;20010;-89
2022/01/17 04:14:55;;;;;;;43.40;15.27;;;;;;;3.64;71.17;98688.06;6002854;23;20036;-86
2022/01/17 04:17:26;;;;;;;40.10;14.40;;;;;;;3.64;70.77;98699.16;6002846;23;20006;-87
2022/01/17 04:19:59;;;;;;;38.83;15.27;;;;;;;3.70;71.07;98695.13;6035244;23;20026;-86
2022/01/17 04:22:24;;;;;;;44.65;14.63;;;;;;;3.68;70.69;98686.75;6008248;23;20044;-86
2022/01/17 04:24:50;;;;;;;36.42;12.45;;;;;;;3.76;70.71;98694.50;6008655;23;20002;-86
2022/01/17 04:27:15;;;;;;;40.63;14.10;;;;;;;3.62;70.40;98695.97;6008011;23;20017;-88
2022/01/17 04:29:40;;;;;;;39.35;13.82;;;;;;;3.54;71.26;98701.09;6007874;23;20040;-86
2022/01/17 04:32:07;;;;;;;51.55;14.82;;;;;;;3.61;71.03;98696.13;6030286;23;20566;-87
2022/01/17 04:34:34;;;;;;;41.83;14.82;;;;;;;3.68;70.69;98685.00;6040773;23;20001;-86
2022/01/17 04:36:59;;;;;;;48.38;13.82;;;;;;;3.79;69.83;98680.47;6031220;23;20706;-86
2022/01/17 04:39:25;;;;;;;46.75;14.93;;;;;;;3.63;70.45;98691.59;6008545;23;20005;-88
2022/01/17 04:41:50;;;;;;;34.28;12.68;;;;;;;3.73;70.06;98694.81;6041702;23;20008;-86
2022/01/17 04:47:00;;;;;;;56.42;16.83;;;;;;;3.75;70.22;98696.28;6035097;23;20020;-88
2022/01/17 04:49:25;;;;;;;40.08;14.30;;;;;;;3.77;70.05;98688.38;6007721;23;20037;-87
2022/01/17 04:51:53;;;;;;;34.70;13.30;;;;;;;3.69;70.19;98683.25;6030694;23;20692;-88
2022/01/17 04:54:41;;;;;;;46.58;14.32;;;;;;;3.70;70.31;98666.78;6008319;23;20663;-88
2022/01/17 04:57:07;;;;;;;32.45;13.88;;;;;;;3.77;70.48;98667.78;6011156;23;20009;-89
2022/01/17 04:59:32;;;;;;;37.00;14.35;;;;;;;3.71;70.04;98676.16;6030793;23;20088;-86
2022/01/17 05:01:58;;;;;;;38.60;14.95;;;;;;;3.70;70.70;98675.34;6041199;23;20277;-86
2022/01/17 05:04:23;;;;;;;34.17;13.70;;;;;;;3.67;70.35;98669.72;6007428;23;20010;-87
2022/01/17 05:06:49;;;;;;;34.33;13.95;;;;;;;3.73;70.41;98676.78;6006947;23;20040;-86
2022/01/17 05:09:14;;;;;;;39.30;15.40;;;;;;;3.79;70.08;98698.50;6006777;23;20005;-87
2022/01/17 05:11:43;;;;;;;32.80;14.32;;;;;;;3.72;70.14;98706.09;6039340;23;20663;-87
2022/01/17 05:14:09;;;;;;;41.60;14.02;;;;;;;3.73;70.27;98708.50;6007568;23;20068;-87
2022/01/17 05:16:40;;;;;;;35.03;13.20;;;;;;;3.77;70.05;98705.59;6006932;23;20606;-86
2022/01/17 05:21:50;;;;;;;65.60;14.38;;;;;;;3.78;70.24;98705.44;6033594;23;20009;-87
2022/01/17 05:24:15;;;;;;;32.53;13.32;;;;;;;3.75;69.89;98682.56;6040744;23;20096;-87
2022/01/17 05:26:41;;;;;;;31.50;13.45;;;;;;;3.83;70.46;98682.56;6006404;23;20084;-87
2022/01/17 05:29:07;;;;;;;44.92;13.85;;;;;;;3.82;69.63;98696.44;6007158;23;19997;-86
2022/01/17 05:31:32;;;;;;;38.20;14.25;;;;;;;3.80;69.58;98698.34;6006733;23;20001;-88
2022/01/17 05:33:58;;;;;;;50.83;14.05;;;;;;;3.78;69.27;98694.34;6006537;23;20001;-86
2022/01/17 05:36:24;;;;;;;51.72;14.75;;;;;;;3.75;69.84;98701.44;6029090;23;20008;-87
2022/01/17 05:38:52;;;;;;;33.35;12.73;;;;;;;3.64;69.64;98698.38;6007895;23;20032;-87
2022/01/17 05:41:17;;;;;;;33.03;13.57;;;;;;;3.74;69.90;98712.69;6039475;23;20006;-86
2022/01/17 05:43:43;;;;;;;49.35;14.77;;;;;;;3.83;69.92;98717.84;6007112;23;20088;-86
2022/01/17 05:46:08;;;;;;;56.10;15.23;;;;;;;3.79;69.43;98719.94;6006438;23;20009;-87
2022/01/17 05:48:34;;;;;;;41.00;14.35;;;;;;;3.66;70.10;98717.84;6006001;23;20071;-87
2022/01/17 05:50:59;;;;;;;37.10;13.00;;;;;;;3.53;70.65;98696.91;6005860;23;20095;-86
2022/01/17 05:53:24;;;;;;;42.55;14.43;;;;;;;3.72;70.11;98711.25;6030698;23;20006;-87
2022/01/17 05:55:50;;;;;;;47.72;14.85;;;;;;;3.76;69.67;98702.22;6006990;23;20092;-88
2022/01/17 05:58:15;;;;;;;44.83;14.30;;;;;;;3.66;70.18;98706.75;6006465;23;20005;-87
2022/01/17 06:00:41;;;;;;;51.15;15.05;;;;;;;3.54;70.47;98696.75;6006018;23;20040;-87
2022/01/17 06:03:06;;;;;;;38.08;13.85;;;;;;;3.75;70.19;98700.59;6006286;23;20025;-86
2022/01/17 06:05:31;;;;;;;37.33;15.02;;;;;;;3.85;70.01;98708.16;6005678;23;20004;-87
2022/01/17 06:07:57;;;;;;;43.58;14.60;;;;;;;3.65;69.44;98699.97;6061803;23;20076;-86
2022/01/17 06:10:22;;;;;;;36.60;12.68;;;;;;;3.69;70.26;98703.84;6037826;23;20833;-88
2022/01/17 06:12:48;;;;;;;34.78;12.15;;;;;;;3.73;70.08;98713.63;6006192;23;20080;-87
2022/01/17 06:15:13;;;;;;;34.22;13.15;;;;;;;3.76;69.53;98715.09;6005850;23;20002;-87
2022/01/17 06:17:38;;;;;;;35.90;13.45;;;;;;;3.70;69.49;98701.09;6006020;23;20005;-87
2022/01/17 06:20:05;;;;;;;32.38;12.95;;;;;;;3.82;69.84;98726.53;6029396;23;20001;-89
2022/01/17 06:22:30;;;;;;;33.10;13.70;;;;;;;3.81;70.28;98715.41;6039050;23;20013;-86
2022/01/17 06:24:56;;;;;;;41.90;14.48;;;;;;;3.76;69.06;98712.53;6054137;23;20005;-87
2022/01/17 06:27:21;;;;;;;34.60;12.65;;;;;;;3.82;70.32;98727.34;6006396;23;20160;-86
2022/01/17 06:29:46;;;;;;;29.13;12.65;;;;;;;3.82;70.11;98747.13;6005727;23;20002;-87
2022/01/17 06:32:12;;;;;;;35.95;14.90;;;;;;;3.86;69.86;98741.50;6038755;23;20679;-87
2022/01/17 06:34:37;;;;;;;32.00;12.70;;;;;;;3.82;70.03;98740.22;6061233;23;20025;-88
2022/01/17 06:37:03;;;;;;;38.22;12.93;;;;;;;3.80;69.38;98738.78;5982233;23;20005;-87
2022/01/17 06:39:28;;;;;;;48.05;13.07;;;;;;;3.69;70.71;98735.56;6005903;23;20001;-88
2022/01/17 06:41:54;;;;;;;37.85;14.02;;;;;;;3.70;70.00;98734.59;5977931;23;20624;-87
2022/01/17 06:44:19;;;;;;;48.50;13.40;;;;;;;3.65;70.57;98748.91;5978080;23;20519;-89
2022/01/17 06:46:45;;;;;;;30.15;12.82;;;;;;;3.74;70.26;98750.53;5977162;23;20072;-86
2022/01/17 06:49:10;;;;;;;31.50;13.32;;;;;;;3.73;70.44;98738.59;6001175;23;20179;-87
2022/01/17 06:51:36;;;;;;;42.97;13.68;;;;;;;3.77;70.40;98733.94;5976508;23;20274;-87
2022/01/17 06:54:02;;;;;;;41.55;15.20;;;;;;;3.56;70.33;98715.44;6035166;23;20174;-87
2022/01/17 06:56:27;;;;;;;33.30;11.55;;;;;;;3.55;70.94;98729.28;5978155;23;20272;-87
2022/01/17 06:58:53;;;;;;;37.38;13.50;;;;;;;3.68;70.59;98741.66;5977684;23;20313;-88
2022/01/17 07:01:20;;;;;;;36.00;12.13;;;;;;;3.51;71.19;98735.72;6001337;23;20352;-87
2022/01/17 07:03:48;;;;;;;37.80;12.43;;;;;;;3.74;70.60;98730.72;5978386;23;20143;-87
2022/01/17 07:06:14;;;;;;;34.38;13.07;;;;;;;3.73;70.67;98736.81;6011083;23;20218;-88
2022/01/17 07:08:39;;;;;;;33.63;14.18;;;;;;;3.80;70.71;98749.06;5978412;23;20257;-87
2022/01/17 07:11:05;;;;;;;31.30;11.60;;;;;;;3.84;70.52;98766.63;5978002;23;20241;-86
2022/01/17 07:13:32;;;;;;;31.90;12.35;;;;;;;3.77;70.51;98765.66;5977734;23;20566;-87
2022/01/17 07:15:57;;;;;;;27.13;12.45;;;;;;;3.73;70.43;98769.53;5977913;23;20259;-87
2022/01/17 07:18:24;;;;;;;39.58;13.30;;;;;;;3.76;70.57;98784.66;5977735;23;20179;-87
2022/01/17 07:20:50;;;;;;;31.50;13.20;;;;;;;3.80;70.11;98796.25;5976786;23;20487;-87
2022/01/17 07:23:15;;;;;;;31.10;12.35;;;;;;;3.86;70.13;98821.38;5977782;23;20210;-87
2022/01/17 07:25:40;;;;;;;42.35;13.30;;;;;;;3.81;70.26;98843.44;5977877;23;20673;-88
2022/01/17 07:28:10;;;;;;;35.35;14.40;;;;;;;3.70;70.53;98831.66;5978251;23;20164;-87
2022/01/17 07:30:36;;;;;;;34.08;13.85;;;;;;;3.77;70.67;98816.38;5977261;23;20277;-88
2022/01/17 07:33:03;;;;;;;43.65;13.30;;;;;;;3.55;70.87;98810.88;5978978;23;20148;-87
2022/01/17 07:35:28;;;;;;;64.75;14.48;;;;;;;3.67;71.21;98811.38;6011181;23;20732;-87
2022/01/17 07:37:55;;;;;;;60.95;16.60;;;;;;;3.68;70.58;98806.06;5977463;23;20152;-87
2022/01/17 07:40:20;;;;;;;41.15;13.65;;;;;;;3.58;71.55;98799.44;5977667;23;20262;-89
2022/01/17 07:42:47;;;;;;;67.68;15.00;;;;;;;3.44;71.22;98788.00;5978261;23;20178;-88
2022/01/17 07:45:15;;;;;;;42.38;14.25;;;;;;;3.64;71.19;98785.94;5978430;23;20186;-87
2022/01/17 07:48:07;;;;;;;44.33;13.98;;;;;;;3.57;72.05;98790.94;6013810;23;20162;-87
2022/01/17 07:50:30;;;;;;;47.15;14.15;;;;;;;3.59;71.32;98809.59;6031296;23;20218;-88
2022/01/17 07:52:57;;;;;;;49.60;13.95;;;;;;;3.56;71.23;98802.19;5980832;23;20313;-87
2022/01/17 07:55:22;;;;;;;35.53;13.15;;;;;;;3.70;71.44;98800.75;6003844;23;20180;-86
2022/01/17 07:57:48;;;;;;;40.30;12.77;;;;;;;3.86;71.42;98805.91;5979062;23;20182;-87
2022/01/17 08:00:20;;;;;;;36.08;12.98;;;;;;;3.62;71.03;98788.69;5979872;23;20562;-90
2022/01/17 08:02:47;;;;;;;33.88;13.40;;;;;;;3.67;70.95;98786.44;5980044;23;20186;-86
2022/01/17 08:05:14;;;;;;;57.40;14.00;;;;;;;3.77;70.50;98775.97;5979305;23;20560;-87
2022/01/17 08:07:41;;;;;;;35.92;12.70;;;;;;;3.77;71.06;98780.31;5976017;23;20186;-88
2022/01/17 08:10:12;;;;;;;46.35;13.68;;;;;;;3.87;70.96;98792.09;6035839;23;20131;-86
2022/01/17 08:12:39;;;;;;;34.70;12.32;;;;;;;3.76;70.93;98789.81;5979302;23;20259;-87
2022/01/17 08:15:05;;;;;;;64.63;14.35;;;;;;;3.88;71.05;98814.28;5979325;23;20196;-87
2022/01/17 08:17:31;;;;;;;32.35;12.63;;;;;;;3.83;69.97;98801.09;6003330;23;20665;-87
2022/01/17 08:19:56;;;;;;;45.72;14.55;;;;;;;3.85;70.20;98812.03;5978753;23;20253;-87
2022/01/17 08:22:22;;;;;;;38.70;13.93;;;;;;;3.89;70.54;98831.38;6012233;23;20350;-86
2022/01/17 08:24:47;;;;;;;34.47;12.90;;;;;;;4.01;70.34;98833.63;5979042;23;20194;-86
2022/01/17 08:27:12;;;;;;;43.97;12.80;;;;;;;4.05;69.67;98840.88;6008343;23;20174;-86
2022/01/17 08:29:38;;;;;;;53.45;14.77;;;;;;;4.09;70.10;98847.31;6013118;23;20174;-86
2022/01/17 08:32:05;;;;;;;41.25;13.55;;;;;;;4.03;70.36;98857.47;6012287;23;20170;-87
2022/01/17 08:34:32;;;;;;;38.85;12.43;;;;;;;4.04;70.45;98839.25;5980091;23;20785;-86
2022/01/17 08:36:58;;;;;;;29.38;12.65;;;;;;;4.12;70.38;98862.47;6037834;23;20581;-86
2022/01/17 08:39:24;;;;;;;50.28;13.90;;;;;;;4.09;70.45;98861.97;5979965;23;20087;-86
2022/01/17 08:41:51;;;;;;;33.28;12.13;;;;;;;3.97;70.20;98850.38;5978773;23;20218;-86
2022/01/17 08:44:19;;;;;;;50.50;13.88;;;;;;;4.09;70.16;98859.41;5978621;23;20184;-86
2022/01/17 08:46:45;;;;;;;29.20;12.38;;;;;;;4.12;69.79;98846.19;6003284;23;20253;-86
2022/01/17 08:49:10;;;;;;;43.58;13.60;;;;;;;4.00;70.22;98826.88;5979627;23;20269;-86
2022/01/17 08:51:37;;;;;;;39.55;13.13;;;;;;;4.10;69.86;98837.81;5977844;23;20258;-85
2022/01/17 08:54:03;;;;;;;32.83;13.32;;;;;;;4.17;69.84;98846.50;6013657;23;20740;-86
2022/01/17 08:56:30;;;;;;;34.03;12.00;;;;;;;4.18;69.73;98849.88;5970342;23;20079;-86
2022/01/17 08:58:56;;;;;;;36.00;12.50;;;;;;;4.16;69.69;98834.59;5970388;23;20151;-86
2022/01/17 09:01:23;;;;;;;27.70;11.73;;;;;;;4.22;70.35;98840.88;5978532;23;20258;-86
2022/01/17 09:03:48;;;;;;;36.22;12.15;;;;;;;4.21;69.01;98824.59;6012675;23;20658;-86
2022/01/17 09:06:14;;;;;;;27.00;11.55;;;;;;;4.31;69.78;98853.59;5977048;23;20282;-86
2022/01/17 09:08:41;;;;;;;25.90;10.55;;;;;;;4.32;69.71;98860.38;6000172;23;20630;-86
2022/01/17 09:11:07;;;;;;;54.75;13.95;;;;;;;4.30;69.07;98872.63;6003685;23;20602;-85
2022/01/17 09:13:32;;;;;;;32.03;12.13;;;;;;;4.25;69.81;98872.31;5980020;23;20194;-86
2022/01/17 09:15:58;;;;;;;42.30;13.27;;;;;;;4.28;70.07;98882.31;6038603;23;20213;-86
2022/01/17 09:18:24;;;;;;;26.35;11.68;;;;;;;4.29;69.89;98872.78;5979840;23;20174;-86
2022/01/17 09:20:50;;;;;;;25.92;10.88;;;;;;;4.39;69.88;98867.47;5979688;23;20238;-87
2022/01/17 09:23:16;;;;;;;25.58;11.40;;;;;;;4.41;70.14;98855.22;6012752;23;20551;-86
2022/01/17 09:25:42;;;;;;;38.92;12.15;;;;;;;4.36;69.13;98849.72;5979790;23;20567;-86
2022/01/17 09:28:07;;;;;;;34.47;12.20;;;;;;;4.43;68.75;98853.28;6028700;23;20139;-85
2022/01/17 09:30:33;;;;;;;42.55;13.15;;;;;;;4.47;69.44;98849.38;6038069;23;20265;-86
2022/01/17 09:32:58;;;;;;;26.92;11.05;;;;;;;4.42;69.47;98846.50;6037843;23;20235;-86
2022/01/17 09:35:24;;;;;;;23.25;9.85;;;;;;;4.51;69.55;98866.16;6013591;23;20209;-86
2022/01/17 09:37:50;;;;;;;41.95;12.50;;;;;;;4.35;69.77;98871.31;5978738;23;20198;-87
2022/01/17 09:40:18;;;;;;;32.58;12.02;;;;;;;4.41;69.66;98878.41;5978320;23;20186;-86
2022/01/17 09:42:44;;;;;;;57.00;14.77;;;;;;;4.41;69.61;98886.16;6037334;23;20194;-85
2022/01/17 09:45:13;;;;;;;28.02;12.25;;;;;;;4.40;69.98;98892.28;6012689;23;20175;-85
2022/01/17 09:47:39;;;;;;;30.90;11.13;;;;;;;4.47;70.28;98895.81;6013650;23;20155;-87
2022/01/17 09:50:09;;;;;;;41.70;12.20;;;;;;;4.46;69.70;98907.13;5979348;23;20226;-86
2022/01/17 09:52:35;;;;;;;25.35;11.00;;;;;;;4.49;69.87;98920.47;6012172;23;20253;-86
2022/01/17 09:55:23;;;;;;;36.00;12.25;;;;;;;4.30;69.35;98900.16;5977563;23;20809;-85
2022/01/17 09:57:53;;;;;;;47.22;13.27;;;;;;;4.44;69.48;98914.22;6004675;23;20194;-86
2022/01/17 10:00:25;;;;;;;35.92;12.73;;;;;;;4.38;69.60;98927.75;6003390;23;20265;-85
2022/01/17 10:02:51;;;;;;;38.85;13.18;;;;;;;4.45;69.46;98920.97;6012587;23;20661;-86
2022/01/17 10:05:17;;;;;;;31.30;11.98;;;;;;;4.49;69.95;98935.16;6003545;23;20261;-85
2022/01/17 10:07:56;;;;;;;27.67;10.98;;;;;;;4.39;70.09;98948.22;6002276;23;20686;-86
2022/01/17 10:10:36;;;;;;;34.53;12.35;;;;;;;4.42;69.48;98931.59;6026578;23;20273;-86
2022/01/17 10:13:23;;;;;;;28.50;12.52;;;;;;;4.36;69.62;98934.84;6003945;23;20121;-86
2022/01/17 10:16:00;;;;;;;41.63;12.05;;;;;;;4.32;69.45;98935.16;5979367;23;20335;-86
2022/01/17 10:19:00;;;;;;;34.75;12.45;;;;;;;4.23;70.72;98924.97;5979084;23;20138;-86
2022/01/17 10:21:26;;;;;;;44.60;11.73;;;;;;;4.52;69.83;98924.50;6014110;23;20637;-86
2022/01/17 10:27:04;;;;;;;52.93;14.23;;;;;;;4.37;69.25;98918.38;6035833;23;20080;-86
2022/01/17 10:35:20;;;;;;;55.40;14.15;;;;;;;4.47;70.20;98931.91;6006704;23;20183;-86
2022/01/17 10:38:08;;;;;;;38.65;12.32;;;;;;;4.37;69.37;98926.94;6004245;23;20202;-85
2022/01/17 10:40:36;;;;;;;30.42;11.27;;;;;;;4.69;69.57;98933.03;6003412;23;20262;-85
2022/01/17 10:43:04;;;;;;;49.60;14.40;;;;;;;4.61;69.40;98927.88;6004067;23;20262;-85
2022/01/17 10:45:36;;;;;;;26.15;11.32;;;;;;;4.61;69.89;98933.03;6038012;23;20436;-85
2022/01/17 10:48:02;;;;;;;26.13;10.85;;;;;;;4.46;70.31;98932.91;6003093;23;20190;-85
2022/01/17 10:50:31;;;;;;;40.17;12.13;;;;;;;4.46;70.29;98936.28;6036491;23;20167;-85
2022/01/17 10:53:00;;;;;;;48.92;12.13;;;;;;;4.54;69.99;98937.25;5979804;23;20174;-85
2022/01/17 10:55:34;;;;;;;28.55;11.00;;;;;;;4.45;70.07;98936.44;6037237;23;20060;-85
2022/01/17 10:58:07;;;;;;;31.25;11.55;;;;;;;4.42;70.13;98940.16;5979389;23;20169;-85
2022/01/17 11:00:36;;;;;;;29.75;11.70;;;;;;;4.69;69.23;98941.59;6001019;23;20262;-84
2022/01/17 11:03:05;;;;;;;28.23;11.77;;;;;;;4.55;69.89;98934.50;6002994;23;20218;-86
2022/01/17 11:05:32;;;;;;;25.38;9.15;;;;;;;4.69;69.81;98936.44;5979535;23;20269;-84
2022/01/17 11:08:01;;;;;;;31.73;11.10;;;;;;;4.66;69.05;98933.34;6011804;23;20155;-84
2022/01/17 11:10:30;;;;;;;40.15;12.43;;;;;;;4.79;69.60;98940.63;6035472;23;20601;-83
2022/01/17 11:12:57;;;;;;;30.02;11.95;;;;;;;4.76;69.64;98941.75;5978413;23;20144;-84
2022/01/17 11:15:24;;;;;;;27.98;11.10;;;;;;;4.76;69.76;98940.94;5977260;23;20170;-83
2022/01/17 11:17:56;;;;;;;25.58;11.45;;;;;;;4.82;70.00;98932.56;5999952;23;20186;-84
2022/01/17 11:20:26;;;;;;;43.40;12.65;;;;;;;4.62;69.40;98932.88;6025930;23;20147;-84
2022/01/17 11:22:55;;;;;;;27.75;10.95;;;;;;;4.74;69.48;98928.19;6037038;23;20196;-84
2022/01/17 11:25:28;;;;;;;28.40;11.40;;;;;;;4.58;70.11;98935.97;6013721;23;20346;-84
2022/01/17 11:27:54;;;;;;;29.33;12.23;;;;;;;4.75;69.75;98940.16;6003395;23;20168;-84
2022/01/17 11:30:19;;;;;;;26.52;10.45;;;;;;;4.74;69.98;98927.41;5979716;23;20267;-86
2022/01/17 11:32:47;;;;;;;27.17;10.40;;;;;;;4.78;69.42;98929.50;6014199;23;20164;-84
2022/01/17 11:35:13;;;;;;;26.98;11.60;;;;;;;4.73;69.46;98941.25;6003548;23;20193;-83
2022/01/17 11:37:42;;;;;;;29.17;11.57;;;;;;;4.66;70.24;98949.66;5980125;23;20258;-85
2022/01/17 11:40:09;;;;;;;35.03;12.30;;;;;;;4.79;69.59;98951.75;6027898;23;20731;-86
2022/01/17 11:42:43;;;;;;;36.25;13.43;;;;;;;4.67;69.93;98958.22;5980789;23;20262;-84
2022/01/17 11:45:33;;;;;;;27.63;12.32;;;;;;;4.60;69.72;98945.16;5981014;23;20182;-84
2022/01/17 11:48:00;;;;;;;37.53;13.30;;;;;;;4.77;69.30;98934.81;5965989;23;20610;-85
2022/01/17 11:50:28;;;;;;;36.92;11.52;;;;;;;4.68;70.01;98934.81;6037176;23;20068;-85